createdAt,value
2017-12-06T00:00:44.412Z,1020.47
2017-12-06T00:01:44.414Z,1020.47
2017-12-06T00:02:44.401Z,1020.42
2017-12-06T00:03:44.395Z,1020.45
2017-12-06T00:04:44.388Z,1020.46
2017-12-06T00:05:44.388Z,1020.47
2017-12-06T00:06:44.385Z,1020.42
2017-12-06T00:07:44.373Z,1020.45
2017-12-06T00:08:44.365Z,1020.41
2017-12-06T00:09:44.359Z,1020.40
2017-12-06T00:10:44.353Z,1020.35
2017-12-06T00:11:44.349Z,1020.38
2017-12-06T00:12:44.341Z,1020.35
2017-12-06T00:13:44.336Z,1020.43
2017-12-06T00:14:44.329Z,1020.39
2017-12-06T00:15:44.324Z,1020.39
2017-12-06T00:16:44.316Z,1020.38
2017-12-06T00:17:44.310Z,1020.32
2017-12-06T00:18:44.306Z,1020.39
2017-12-06T00:19:44.299Z,1020.32
2017-12-06T00:20:44.295Z,1020.35
2017-12-06T00:21:44.286Z,1020.41
2017-12-06T00:22:44.280Z,1020.36
2017-12-06T00:23:44.275Z,1020.37
2017-12-06T00:24:44.278Z,1020.41
2017-12-06T00:25:44.263Z,1020.36
2017-12-06T00:26:44.257Z,1020.34
2017-12-06T00:27:44.252Z,1020.42
2017-12-06T00:28:44.245Z,1020.44
2017-12-06T00:29:44.238Z,1020.43
2017-12-06T00:30:44.233Z,1020.47
2017-12-06T00:31:44.228Z,1020.45
2017-12-06T00:32:44.222Z,1020.42
2017-12-06T00:33:44.216Z,1020.43
2017-12-06T00:34:44.211Z,1020.46
2017-12-06T00:35:44.209Z,1020.41
2017-12-06T00:36:44.199Z,1020.41
2017-12-06T00:37:44.192Z,1020.33
2017-12-06T00:38:44.194Z,1020.40
2017-12-06T00:39:44.181Z,1020.41
2017-12-06T00:40:44.174Z,1020.46
2017-12-06T00:41:44.168Z,1020.42
2017-12-06T00:42:44.165Z,1020.41
2017-12-06T00:43:44.157Z,1020.40
2017-12-06T00:44:44.149Z,1020.41
2017-12-06T00:45:44.144Z,1020.37
2017-12-06T00:46:44.138Z,1020.31
2017-12-06T00:47:44.133Z,1020.37
2017-12-06T00:48:44.125Z,1020.38
2017-12-06T00:49:44.119Z,1020.36
2017-12-06T00:50:44.115Z,1020.29
2017-12-06T00:51:44.110Z,1020.37
2017-12-06T00:52:44.101Z,1020.37
2017-12-06T00:53:44.097Z,1020.28
2017-12-06T00:54:44.092Z,1020.30
2017-12-06T00:55:44.085Z,1020.36
2017-12-06T00:56:44.078Z,1020.35
2017-12-06T00:57:44.073Z,1020.38
2017-12-06T00:58:44.068Z,1020.32
2017-12-06T00:59:44.061Z,1020.30
2017-12-06T01:00:44.055Z,1020.31
2017-12-06T01:01:44.051Z,1020.29
2017-12-06T01:02:44.042Z,1020.29
2017-12-06T01:03:44.037Z,1020.25
2017-12-06T01:04:44.031Z,1020.28
2017-12-06T01:05:44.025Z,1020.32
2017-12-06T01:06:44.020Z,1020.26
2017-12-06T01:07:44.012Z,1020.26
2017-12-06T01:08:44.005Z,1020.32
2017-12-06T01:09:43.999Z,1020.30
2017-12-06T01:10:43.993Z,1020.34
2017-12-06T01:11:43.988Z,1020.37
2017-12-06T01:12:43.982Z,1020.32
2017-12-06T01:13:43.977Z,1020.33
2017-12-06T01:14:43.971Z,1020.28
2017-12-06T01:15:43.965Z,1020.24
2017-12-06T01:16:43.962Z,1020.27
2017-12-06T01:17:43.953Z,1020.28
2017-12-06T01:18:43.948Z,1020.30
2017-12-06T01:19:43.943Z,1020.24
2017-12-06T01:20:43.935Z,1020.30
2017-12-06T01:21:43.929Z,1020.26
2017-12-06T01:22:43.923Z,1020.30
2017-12-06T01:23:43.919Z,1020.27
2017-12-06T01:24:43.911Z,1020.31
2017-12-06T01:25:43.907Z,1020.32
2017-12-06T01:26:43.901Z,1020.30
2017-12-06T01:27:43.894Z,1020.30
2017-12-06T01:28:43.894Z,1020.29
2017-12-06T01:29:43.881Z,1020.27
2017-12-06T01:30:43.876Z,1020.29
2017-12-06T01:31:43.869Z,1020.25
2017-12-06T01:32:43.863Z,1020.34
2017-12-06T01:33:43.857Z,1020.27
2017-12-06T01:34:43.852Z,1020.31
2017-12-06T01:35:43.846Z,1020.35
2017-12-06T01:36:43.839Z,1020.31
2017-12-06T01:37:43.833Z,1020.35
2017-12-06T01:38:43.828Z,1020.32
2017-12-06T01:39:43.823Z,1020.32
2017-12-06T01:40:43.815Z,1020.32
2017-12-06T01:41:43.810Z,1020.35
2017-12-06T01:42:43.804Z,1020.31
2017-12-06T01:43:43.798Z,1020.33
2017-12-06T01:44:43.791Z,1020.32
2017-12-06T01:45:43.788Z,1020.36
2017-12-06T01:46:43.780Z,1020.34
2017-12-06T01:47:43.774Z,1020.28
2017-12-06T01:48:43.767Z,1020.28
2017-12-06T01:49:43.760Z,1020.32
2017-12-06T01:50:43.755Z,1020.29
2017-12-06T01:51:43.752Z,1020.24
2017-12-06T01:52:43.743Z,1020.29
2017-12-06T01:53:43.737Z,1020.21
2017-12-06T01:54:43.731Z,1020.17
2017-12-06T01:55:43.724Z,1020.15
2017-12-06T01:56:43.718Z,1020.16
2017-12-06T01:57:43.711Z,1020.12
2017-12-06T01:58:43.707Z,1020.11
2017-12-06T01:59:43.700Z,1020.13
2017-12-06T02:00:43.692Z,1020.16
2017-12-06T02:01:43.687Z,1020.11
2017-12-06T02:02:43.682Z,1020.12
2017-12-06T02:03:43.676Z,1020.13
2017-12-06T02:04:43.673Z,1020.16
2017-12-06T02:05:43.665Z,1020.14
2017-12-06T02:06:43.658Z,1020.09
2017-12-06T02:07:43.653Z,1020.13
2017-12-06T02:08:43.645Z,1020.08
2017-12-06T02:09:43.640Z,1020.13
2017-12-06T02:10:43.634Z,1020.10
2017-12-06T02:11:43.629Z,1020.13
2017-12-06T02:12:43.622Z,1020.10
2017-12-06T02:13:43.616Z,1020.09
2017-12-06T02:14:43.610Z,1020.08
2017-12-06T02:15:43.603Z,1020.15
2017-12-06T02:16:43.597Z,1020.05
2017-12-06T02:17:43.591Z,1020.06
2017-12-06T02:18:43.585Z,1020.08
2017-12-06T02:19:43.579Z,1020.03
2017-12-06T02:20:43.572Z,1020.05
2017-12-06T02:21:43.567Z,1020.02
2017-12-06T02:22:43.561Z,1019.99
2017-12-06T02:23:43.555Z,1019.97
2017-12-06T02:24:43.548Z,1019.98
2017-12-06T02:25:43.543Z,1020.01
2017-12-06T02:26:43.537Z,1020.03
2017-12-06T02:27:43.531Z,1019.99
2017-12-06T02:28:43.524Z,1019.96
2017-12-06T02:29:43.519Z,1020.00
2017-12-06T02:30:43.513Z,1020.03
2017-12-06T02:31:43.508Z,1019.99
2017-12-06T02:32:43.505Z,1020.05
2017-12-06T02:33:43.495Z,1020.00
2017-12-06T02:34:43.490Z,1019.95
2017-12-06T02:35:43.484Z,1020.01
2017-12-06T02:36:43.475Z,1020.01
2017-12-06T02:37:43.471Z,1019.97
2017-12-06T02:38:43.463Z,1019.98
2017-12-06T02:39:43.459Z,1020.01
2017-12-06T02:40:43.452Z,1019.94
2017-12-06T02:41:43.445Z,1019.95
2017-12-06T02:42:43.439Z,1019.98
2017-12-06T02:43:43.434Z,1019.92
2017-12-06T02:44:43.427Z,1019.96
2017-12-06T02:45:43.423Z,1019.89
2017-12-06T02:46:43.415Z,1019.99
2017-12-06T02:47:43.420Z,1019.93
2017-12-06T02:48:43.403Z,1019.94
2017-12-06T02:49:43.397Z,1019.95
2017-12-06T02:50:43.392Z,1019.96
2017-12-06T02:51:43.384Z,1019.92
2017-12-06T02:52:43.378Z,1019.86
2017-12-06T02:53:43.373Z,1019.89
2017-12-06T02:54:43.367Z,1019.85
2017-12-06T02:55:43.363Z,1019.90
2017-12-06T02:56:43.354Z,1019.84
2017-12-06T02:57:43.350Z,1019.89
2017-12-06T02:58:43.342Z,1019.83
2017-12-06T02:59:43.337Z,1019.81
2017-12-06T03:00:43.330Z,1019.77
2017-12-06T03:01:43.324Z,1019.80
2017-12-06T03:02:43.319Z,1019.80
2017-12-06T03:03:43.313Z,1019.81
2017-12-06T03:04:43.306Z,1019.75
2017-12-06T03:05:43.301Z,1019.70
2017-12-06T03:06:43.295Z,1019.75
2017-12-06T03:07:43.289Z,1019.78
2017-12-06T03:08:43.282Z,1019.74
2017-12-06T03:09:43.276Z,1019.73
2017-12-06T03:10:43.270Z,1019.71
2017-12-06T03:11:43.264Z,1019.71
2017-12-06T03:12:43.257Z,1019.71
2017-12-06T03:13:43.252Z,1019.70
2017-12-06T03:14:43.246Z,1019.70
2017-12-06T03:15:43.240Z,1019.68
2017-12-06T03:16:43.233Z,1019.66
2017-12-06T03:17:43.229Z,1019.60
2017-12-06T03:18:43.222Z,1019.65
2017-12-06T03:19:43.216Z,1019.61
2017-12-06T03:20:43.209Z,1019.63
2017-12-06T03:21:43.210Z,1019.63
2017-12-06T03:22:43.197Z,1019.62
2017-12-06T03:23:43.192Z,1019.69
2017-12-06T03:24:43.185Z,1019.66
2017-12-06T03:25:43.186Z,1019.63
2017-12-06T03:26:43.175Z,1019.54
2017-12-06T03:27:43.168Z,1019.56
2017-12-06T03:28:43.161Z,1019.58
2017-12-06T03:29:43.202Z,1019.61
2017-12-06T03:30:43.153Z,1019.63
2017-12-06T03:31:43.144Z,1019.64
2017-12-06T03:32:43.137Z,1019.69
2017-12-06T03:33:43.132Z,1019.64
2017-12-06T03:34:43.125Z,1019.67
2017-12-06T03:35:43.120Z,1019.65
2017-12-06T03:36:43.111Z,1019.62
2017-12-06T03:37:43.107Z,1019.64
2017-12-06T03:38:43.101Z,1019.63
2017-12-06T03:39:43.095Z,1019.65
2017-12-06T03:40:43.087Z,1019.61
2017-12-06T03:41:43.081Z,1019.50
2017-12-06T03:42:43.076Z,1019.57
2017-12-06T03:43:43.070Z,1019.56
2017-12-06T03:44:43.063Z,1019.51
2017-12-06T03:45:43.058Z,1019.53
2017-12-06T03:46:43.053Z,1019.54
2017-12-06T03:47:43.046Z,1019.55
2017-12-06T03:48:43.040Z,1019.54
2017-12-06T03:49:43.037Z,1019.53
2017-12-06T03:50:43.028Z,1019.51
2017-12-06T03:51:43.023Z,1019.57
2017-12-06T03:52:43.015Z,1019.51
2017-12-06T03:53:43.010Z,1019.51
2017-12-06T03:54:43.005Z,1019.45
2017-12-06T03:55:42.999Z,1019.47
2017-12-06T03:56:42.992Z,1019.43
2017-12-06T03:57:42.985Z,1019.46
2017-12-06T03:58:42.980Z,1019.41
2017-12-06T03:59:42.975Z,1019.42
2017-12-06T04:00:42.968Z,1019.41
2017-12-06T04:01:42.962Z,1019.31
2017-12-06T04:02:42.960Z,1019.33
2017-12-06T04:03:42.952Z,1019.31
2017-12-06T04:04:42.944Z,1019.28
2017-12-06T04:05:42.941Z,1019.29
2017-12-06T04:06:42.932Z,1019.30
2017-12-06T04:07:42.926Z,1019.29
2017-12-06T04:08:42.920Z,1019.27
2017-12-06T04:09:42.915Z,1019.31
2017-12-06T04:10:42.909Z,1019.26
2017-12-06T04:11:42.903Z,1019.35
2017-12-06T04:12:42.897Z,1019.27
2017-12-06T04:13:42.898Z,1019.28
2017-12-06T04:14:42.887Z,1019.28
2017-12-06T04:15:42.879Z,1019.25
2017-12-06T04:16:42.873Z,1019.23
2017-12-06T04:17:42.886Z,1019.29
2017-12-06T04:18:42.860Z,1019.26
2017-12-06T04:19:42.856Z,1019.27
2017-12-06T04:20:42.849Z,1019.27
2017-12-06T04:21:42.842Z,1019.31
2017-12-06T04:22:42.835Z,1019.23
2017-12-06T04:23:42.831Z,1019.28
2017-12-06T04:24:42.824Z,1019.26
2017-12-06T04:25:42.818Z,1019.21
2017-12-06T04:26:42.814Z,1019.23
2017-12-06T04:27:42.808Z,1019.25
2017-12-06T04:28:42.801Z,1019.19
2017-12-06T04:29:42.795Z,1019.22
2017-12-06T04:30:42.792Z,1019.24
2017-12-06T04:31:42.785Z,1019.29
2017-12-06T04:32:42.776Z,1019.33
2017-12-06T04:33:42.777Z,1019.26
2017-12-06T04:34:42.768Z,1019.27
2017-12-06T04:35:42.760Z,1019.25
2017-12-06T04:36:42.752Z,1019.20
2017-12-06T04:37:42.749Z,1019.25
2017-12-06T04:38:42.742Z,1019.23
2017-12-06T04:39:42.736Z,1019.23
2017-12-06T04:40:42.728Z,1019.22
2017-12-06T04:41:42.726Z,1019.26
2017-12-06T04:42:42.717Z,1019.20
2017-12-06T04:43:42.713Z,1019.15
2017-12-06T04:44:42.705Z,1019.21
2017-12-06T04:45:42.699Z,1019.23
2017-12-06T04:46:42.693Z,1019.17
2017-12-06T04:47:42.687Z,1019.22
2017-12-06T04:48:42.680Z,1019.26
2017-12-06T04:49:42.676Z,1019.22
2017-12-06T04:50:42.670Z,1019.18
2017-12-06T04:51:42.664Z,1019.21
2017-12-06T04:52:42.657Z,1019.20
2017-12-06T04:53:42.652Z,1019.19
2017-12-06T04:54:42.646Z,1019.12
2017-12-06T04:55:42.639Z,1019.14
2017-12-06T04:56:42.634Z,1019.13
2017-12-06T04:57:42.628Z,1019.11
2017-12-06T04:58:42.623Z,1019.10
2017-12-06T04:59:42.616Z,1019.04
2017-12-06T05:00:42.612Z,1019.05
2017-12-06T05:01:42.604Z,1019.07
2017-12-06T05:02:42.599Z,1019.01
2017-12-06T05:03:42.593Z,1018.99
2017-12-06T05:04:42.586Z,1018.98
2017-12-06T05:05:42.585Z,1018.98
2017-12-06T05:06:42.575Z,1019.00
2017-12-06T05:07:42.569Z,1018.91
2017-12-06T05:08:42.562Z,1018.92
2017-12-06T05:09:42.557Z,1018.90
2017-12-06T05:10:42.551Z,1018.90
2017-12-06T05:11:42.545Z,1018.84
2017-12-06T05:12:42.538Z,1018.84
2017-12-06T05:13:42.533Z,1018.84
2017-12-06T05:14:42.528Z,1018.82
2017-12-06T05:15:42.522Z,1018.85
2017-12-06T05:16:42.515Z,1018.88
2017-12-06T05:17:42.509Z,1018.88
2017-12-06T05:18:42.503Z,1018.84
2017-12-06T05:19:42.498Z,1018.82
2017-12-06T05:20:42.491Z,1018.80
2017-12-06T05:21:42.485Z,1018.76
2017-12-06T05:22:42.485Z,1018.78
2017-12-06T05:23:42.479Z,1018.80
2017-12-06T05:24:42.467Z,1018.83
2017-12-06T05:25:42.461Z,1018.80
2017-12-06T05:26:42.455Z,1018.82
2017-12-06T05:27:42.450Z,1018.84
2017-12-06T05:28:42.445Z,1018.79
2017-12-06T05:29:42.437Z,1018.80
2017-12-06T05:30:42.431Z,1018.84
2017-12-06T05:31:42.430Z,1018.84
2017-12-06T05:32:42.419Z,1018.81
2017-12-06T05:33:42.412Z,1018.82
2017-12-06T05:34:42.411Z,1018.74
2017-12-06T05:35:42.404Z,1018.76
2017-12-06T05:36:42.396Z,1018.71
2017-12-06T05:37:42.389Z,1018.78
2017-12-06T05:38:42.384Z,1018.77
2017-12-06T05:39:42.377Z,1018.79
2017-12-06T05:40:42.372Z,1018.82
2017-12-06T05:41:42.365Z,1018.78
2017-12-06T05:42:42.360Z,1018.77
2017-12-06T05:43:42.355Z,1018.79
2017-12-06T05:44:42.350Z,1018.74
2017-12-06T05:45:42.343Z,1018.76
2017-12-06T05:46:42.337Z,1018.74
2017-12-06T05:47:42.331Z,1018.73
2017-12-06T05:48:42.324Z,1018.75
2017-12-06T05:49:42.318Z,1018.71
2017-12-06T05:50:42.313Z,1018.74
2017-12-06T05:51:42.306Z,1018.73
2017-12-06T05:52:42.299Z,1018.74
2017-12-06T05:53:42.295Z,1018.74
2017-12-06T05:54:42.290Z,1018.77
2017-12-06T05:55:42.282Z,1018.72
2017-12-06T05:56:42.276Z,1018.79
2017-12-06T05:57:42.271Z,1018.71
2017-12-06T05:58:42.265Z,1018.69
2017-12-06T05:59:42.260Z,1018.69
2017-12-06T06:00:42.253Z,1018.72
2017-12-06T06:01:42.246Z,1018.76
2017-12-06T06:02:42.241Z,1018.78
2017-12-06T06:03:42.235Z,1018.76
2017-12-06T06:04:42.229Z,1018.75
2017-12-06T06:05:42.223Z,1018.78
2017-12-06T06:06:42.218Z,1018.78
2017-12-06T06:07:42.211Z,1018.82
2017-12-06T06:08:42.206Z,1018.77
2017-12-06T06:09:42.199Z,1018.80
2017-12-06T06:10:42.195Z,1018.83
2017-12-06T06:11:42.187Z,1018.77
2017-12-06T06:12:42.181Z,1018.82
2017-12-06T06:13:42.175Z,1018.82
2017-12-06T06:14:42.169Z,1018.78
2017-12-06T06:15:42.165Z,1018.74
2017-12-06T06:16:42.158Z,1018.78
2017-12-06T06:17:42.152Z,1018.75
2017-12-06T06:18:42.145Z,1018.77
2017-12-06T06:19:42.140Z,1018.78
2017-12-06T06:20:42.132Z,1018.79
2017-12-06T06:21:42.128Z,1018.76
2017-12-06T06:22:42.123Z,1018.76
2017-12-06T06:23:42.119Z,1018.76
2017-12-06T06:24:42.111Z,1018.76
2017-12-06T06:25:42.104Z,1018.79
2017-12-06T06:26:42.099Z,1018.78
2017-12-06T06:27:42.094Z,1018.76
2017-12-06T06:28:42.086Z,1018.75
2017-12-06T06:29:42.081Z,1018.75
2017-12-06T06:30:42.076Z,1018.76
2017-12-06T06:31:42.072Z,1018.72
2017-12-06T06:32:42.062Z,1018.78
2017-12-06T06:33:42.058Z,1018.72
2017-12-06T06:34:42.051Z,1018.74
2017-12-06T06:35:42.047Z,1018.67
2017-12-06T06:36:42.039Z,1018.70
2017-12-06T06:37:42.033Z,1018.70
2017-12-06T06:38:42.029Z,1018.74
2017-12-06T06:39:42.023Z,1018.75
2017-12-06T06:40:42.017Z,1018.73
2017-12-06T06:41:42.011Z,1018.74
2017-12-06T06:42:42.005Z,1018.72
2017-12-06T06:43:41.999Z,1018.73
2017-12-06T06:44:41.994Z,1018.71
2017-12-06T06:45:41.987Z,1018.70
2017-12-06T06:46:41.982Z,1018.70
2017-12-06T06:47:41.976Z,1018.70
2017-12-06T06:48:41.969Z,1018.72
2017-12-06T06:49:41.963Z,1018.70
2017-12-06T06:50:41.958Z,1018.70
2017-12-06T06:51:41.955Z,1018.75
2017-12-06T06:52:41.945Z,1018.66
2017-12-06T06:53:41.939Z,1018.67
2017-12-06T06:54:41.934Z,1018.64
2017-12-06T06:55:41.929Z,1018.62
2017-12-06T06:56:41.928Z,1018.63
2017-12-06T06:57:41.971Z,1018.66
2017-12-06T06:58:41.911Z,1018.66
2017-12-06T06:59:41.906Z,1018.71
2017-12-06T07:00:41.898Z,1018.64
2017-12-06T07:01:41.893Z,1018.64
2017-12-06T07:02:41.888Z,1018.54
2017-12-06T07:03:41.881Z,1018.62
2017-12-06T07:04:41.875Z,1018.65
2017-12-06T07:05:41.880Z,1018.66
2017-12-06T07:06:41.864Z,1018.65
2017-12-06T07:07:41.859Z,1018.63
2017-12-06T07:08:41.853Z,1018.65
2017-12-06T07:09:41.851Z,1018.65
2017-12-06T07:10:41.841Z,1018.61
2017-12-06T07:11:41.835Z,1018.62
2017-12-06T07:12:41.829Z,1018.58
2017-12-06T07:13:41.829Z,1018.58
2017-12-06T07:14:41.815Z,1018.58
2017-12-06T07:15:41.812Z,1018.60
2017-12-06T07:16:41.805Z,1018.61
2017-12-06T07:17:41.799Z,1018.59
2017-12-06T07:18:41.794Z,1018.65
2017-12-06T07:19:41.788Z,1018.66
2017-12-06T07:20:41.781Z,1018.63
2017-12-06T07:21:41.776Z,1018.68
2017-12-06T07:22:41.771Z,1018.66
2017-12-06T07:23:41.765Z,1018.73
2017-12-06T07:24:41.758Z,1018.68
2017-12-06T07:25:41.752Z,1018.73
2017-12-06T07:26:41.788Z,1018.67
2017-12-06T07:27:41.742Z,1018.71
2017-12-06T07:28:41.738Z,1018.73
2017-12-06T07:29:41.728Z,1018.72
2017-12-06T07:30:41.723Z,1018.75
2017-12-06T07:31:41.721Z,1018.72
2017-12-06T07:32:41.755Z,1018.70
2017-12-06T07:33:41.709Z,1018.70
2017-12-06T07:34:41.702Z,1018.70
2017-12-06T07:35:41.695Z,1018.67
2017-12-06T07:36:41.687Z,1018.68
2017-12-06T07:37:41.682Z,1018.62
2017-12-06T07:38:41.677Z,1018.70
2017-12-06T07:39:41.672Z,1018.66
2017-12-06T07:40:41.664Z,1018.70
2017-12-06T07:41:41.659Z,1018.67
2017-12-06T07:42:41.654Z,1018.68
2017-12-06T07:43:41.652Z,1018.67
2017-12-06T07:44:41.642Z,1018.66
2017-12-06T07:45:41.636Z,1018.64
2017-12-06T07:46:41.630Z,1018.69
2017-12-06T07:47:41.624Z,1018.68
2017-12-06T07:48:41.619Z,1018.68
2017-12-06T07:49:41.613Z,1018.74
2017-12-06T07:50:41.615Z,1018.68
2017-12-06T07:51:41.606Z,1018.71
2017-12-06T07:52:41.596Z,1018.76
2017-12-06T07:53:41.590Z,1018.75
2017-12-06T07:54:41.585Z,1018.78
2017-12-06T07:55:41.580Z,1018.82
2017-12-06T07:56:41.572Z,1018.77
2017-12-06T07:57:41.566Z,1018.81
2017-12-06T07:58:41.559Z,1018.77
2017-12-06T07:59:41.556Z,1018.77
2017-12-06T08:00:41.555Z,1018.77
2017-12-06T08:01:41.544Z,1018.72
2017-12-06T08:02:41.539Z,1018.74
2017-12-06T08:03:41.533Z,1018.74
2017-12-06T08:04:41.527Z,1018.69
2017-12-06T08:05:41.521Z,1018.73
2017-12-06T08:06:41.516Z,1018.74
2017-12-06T08:07:41.511Z,1018.67
2017-12-06T08:08:41.503Z,1018.76
2017-12-06T08:09:41.502Z,1018.66
2017-12-06T08:10:41.492Z,1018.68
2017-12-06T08:11:41.486Z,1018.75
2017-12-06T08:12:41.479Z,1018.71
2017-12-06T08:13:41.476Z,1018.75
2017-12-06T08:14:41.471Z,1018.76
2017-12-06T08:15:41.464Z,1018.68
2017-12-06T08:16:41.457Z,1018.72
2017-12-06T08:17:41.454Z,1018.73
2017-12-06T08:18:41.447Z,1018.76
2017-12-06T08:19:41.442Z,1018.82
2017-12-06T08:20:41.434Z,1018.75
2017-12-06T08:21:41.431Z,1018.82
2017-12-06T08:22:41.424Z,1018.77
2017-12-06T08:23:41.419Z,1018.76
2017-12-06T08:24:41.415Z,1018.76
2017-12-06T08:25:41.407Z,1018.77
2017-12-06T08:26:41.402Z,1018.76
2017-12-06T08:27:41.396Z,1018.77
2017-12-06T08:28:41.390Z,1018.80
2017-12-06T08:29:41.384Z,1018.76
2017-12-06T08:30:41.379Z,1018.80
2017-12-06T08:31:41.374Z,1018.76
2017-12-06T08:32:41.366Z,1018.78
2017-12-06T08:33:41.362Z,1018.79
2017-12-06T08:34:41.356Z,1018.81
2017-12-06T08:35:41.352Z,1018.81
2017-12-06T08:36:41.347Z,1018.79
2017-12-06T08:37:41.340Z,1018.76
2017-12-06T08:38:41.335Z,1018.78
2017-12-06T08:39:41.328Z,1018.80
2017-12-06T08:40:41.322Z,1018.76
2017-12-06T08:41:41.317Z,1018.76
2017-12-06T08:42:41.310Z,1018.77
2017-12-06T08:43:41.306Z,1018.79
2017-12-06T08:44:41.300Z,1018.81
2017-12-06T08:45:41.293Z,1018.84
2017-12-06T08:46:41.288Z,1018.83
2017-12-06T08:47:41.281Z,1018.87
2017-12-06T08:48:41.278Z,1018.83
2017-12-06T08:49:41.271Z,1018.81
2017-12-06T08:50:41.267Z,1018.87
2017-12-06T08:51:41.261Z,1018.79
2017-12-06T08:52:41.255Z,1018.76
2017-12-06T08:53:41.249Z,1018.81
2017-12-06T08:54:41.243Z,1018.72
2017-12-06T08:55:41.237Z,1018.77
2017-12-06T08:56:41.231Z,1018.78
2017-12-06T08:57:41.227Z,1018.78
2017-12-06T08:58:41.225Z,1018.73
2017-12-06T08:59:41.215Z,1018.77
2017-12-06T09:00:41.209Z,1018.78
2017-12-06T09:01:41.204Z,1018.75
2017-12-06T09:02:41.198Z,1018.78
2017-12-06T09:03:41.195Z,1018.77
2017-12-06T09:04:41.188Z,1018.74
2017-12-06T09:05:41.182Z,1018.77
2017-12-06T09:06:41.200Z,1018.79
2017-12-06T09:07:41.172Z,1018.77
2017-12-06T09:08:41.166Z,1018.77
2017-12-06T09:09:41.160Z,1018.76
2017-12-06T09:10:41.156Z,1018.78
2017-12-06T09:11:41.149Z,1018.77
2017-12-06T09:12:41.143Z,1018.80
2017-12-06T09:13:41.136Z,1018.82
2017-12-06T09:14:41.131Z,1018.81
2017-12-06T09:15:41.127Z,1018.80
2017-12-06T09:16:41.120Z,1018.81
2017-12-06T09:17:41.115Z,1018.81
2017-12-06T09:18:41.164Z,1018.76
2017-12-06T09:19:41.149Z,1018.77
2017-12-06T09:20:41.098Z,1018.80
2017-12-06T09:21:41.093Z,1018.75
2017-12-06T09:22:41.087Z,1018.79
2017-12-06T09:23:41.081Z,1018.84
2017-12-06T09:24:41.080Z,1018.83
2017-12-06T09:25:41.074Z,1018.77
2017-12-06T09:26:41.066Z,1018.80
2017-12-06T09:27:41.059Z,1018.83
2017-12-06T09:28:41.054Z,1018.77
2017-12-06T09:29:41.049Z,1018.74
2017-12-06T09:30:41.043Z,1018.77
2017-12-06T09:31:41.039Z,1018.81
2017-12-06T09:32:41.036Z,1018.79
2017-12-06T09:33:41.028Z,1018.81
2017-12-06T09:34:41.022Z,1018.84
2017-12-06T09:35:41.017Z,1018.81
2017-12-06T09:36:41.021Z,1018.86
2017-12-06T09:37:41.004Z,1018.89
2017-12-06T09:38:40.999Z,1018.84
2017-12-06T09:39:40.994Z,1018.87
2017-12-06T09:40:40.988Z,1018.87
2017-12-06T09:41:40.982Z,1018.89
2017-12-06T09:42:40.976Z,1018.87
2017-12-06T09:43:40.972Z,1018.84
2017-12-06T09:44:40.966Z,1018.83
2017-12-06T09:45:40.961Z,1018.89
2017-12-06T09:46:40.957Z,1018.85
2017-12-06T09:47:40.950Z,1018.90
2017-12-06T09:48:40.944Z,1018.92
2017-12-06T09:49:40.938Z,1018.86
2017-12-06T09:50:40.933Z,1018.92
2017-12-06T09:51:40.929Z,1018.87
2017-12-06T09:52:40.922Z,1018.91
2017-12-06T09:53:40.916Z,1018.89
2017-12-06T09:54:40.911Z,1018.93
2017-12-06T09:55:40.906Z,1018.92
2017-12-06T09:56:40.899Z,1018.91
2017-12-06T09:57:40.894Z,1018.97
2017-12-06T09:58:40.890Z,1018.92
2017-12-06T09:59:40.884Z,1018.95
2017-12-06T10:00:40.878Z,1018.86
2017-12-06T10:01:40.872Z,1018.92
2017-12-06T10:02:40.869Z,1018.90
2017-12-06T10:03:40.863Z,1018.94
2017-12-06T10:04:40.856Z,1018.93
2017-12-06T10:05:40.851Z,1018.91
2017-12-06T10:06:40.846Z,1018.89
2017-12-06T10:07:40.841Z,1018.83
2017-12-06T10:08:40.834Z,1018.88
2017-12-06T10:09:40.829Z,1018.87
2017-12-06T10:10:40.824Z,1018.87
2017-12-06T10:11:40.821Z,1018.82
2017-12-06T10:12:40.813Z,1018.82
2017-12-06T10:13:40.808Z,1018.89
2017-12-06T10:14:40.803Z,1018.89
2017-12-06T10:15:40.797Z,1018.85
2017-12-06T10:16:40.791Z,1018.85
2017-12-06T10:17:40.786Z,1018.82
2017-12-06T10:18:40.784Z,1018.86
2017-12-06T10:19:40.776Z,1018.81
2017-12-06T10:20:40.769Z,1018.80
2017-12-06T10:21:40.764Z,1018.80
2017-12-06T10:22:40.759Z,1018.78
2017-12-06T10:23:40.754Z,1018.77
2017-12-06T10:24:40.747Z,1018.71
2017-12-06T10:25:40.743Z,1018.73
2017-12-06T10:26:40.738Z,1018.77
2017-12-06T10:27:40.733Z,1018.71
2017-12-06T10:28:40.727Z,1018.70
2017-12-06T10:29:40.723Z,1018.74
2017-12-06T10:30:40.717Z,1018.73
2017-12-06T10:31:40.711Z,1018.71
2017-12-06T10:32:40.706Z,1018.69
2017-12-06T10:33:40.700Z,1018.68
2017-12-06T10:34:40.695Z,1018.65
2017-12-06T10:35:40.690Z,1018.74
2017-12-06T10:36:40.683Z,1018.70
2017-12-06T10:37:40.680Z,1018.64
2017-12-06T10:38:40.674Z,1018.63
2017-12-06T10:39:40.669Z,1018.61
2017-12-06T10:40:40.664Z,1018.65
2017-12-06T10:41:40.660Z,1018.59
2017-12-06T10:42:40.653Z,1018.61
2017-12-06T10:43:40.648Z,1018.58
2017-12-06T10:44:40.642Z,1018.61
2017-12-06T10:45:40.637Z,1018.63
2017-12-06T10:46:40.631Z,1018.62
2017-12-06T10:47:40.626Z,1018.57
2017-12-06T10:48:40.621Z,1018.56
2017-12-06T10:49:40.616Z,1018.52
2017-12-06T10:50:40.610Z,1018.54
2017-12-06T10:51:40.606Z,1018.52
2017-12-06T10:52:40.600Z,1018.49
2017-12-06T10:53:40.595Z,1018.47
2017-12-06T10:54:40.589Z,1018.44
2017-12-06T10:55:40.584Z,1018.41
2017-12-06T10:56:40.578Z,1018.51
2017-12-06T10:57:40.573Z,1018.49
2017-12-06T10:58:40.568Z,1018.49
2017-12-06T10:59:40.571Z,1018.50
2017-12-06T11:00:40.558Z,1018.46
2017-12-06T11:01:40.556Z,1018.44
2017-12-06T11:02:40.548Z,1018.52
2017-12-06T11:03:40.544Z,1018.47
2017-12-06T11:04:40.537Z,1018.47
2017-12-06T11:05:40.532Z,1018.51
2017-12-06T11:06:40.527Z,1018.46
2017-12-06T11:07:40.521Z,1018.48
2017-12-06T11:08:40.516Z,1018.47
2017-12-06T11:09:40.510Z,1018.44
2017-12-06T11:10:40.507Z,1018.45
2017-12-06T11:11:40.502Z,1018.44
2017-12-06T11:12:40.495Z,1018.45
2017-12-06T11:13:40.490Z,1018.47
2017-12-06T11:14:40.491Z,1018.47
2017-12-06T11:15:40.482Z,1018.44
2017-12-06T11:16:40.476Z,1018.43
2017-12-06T11:17:40.470Z,1018.44
2017-12-06T11:18:40.464Z,1018.38
2017-12-06T11:19:40.461Z,1018.41
2017-12-06T11:20:40.454Z,1018.41
2017-12-06T11:21:40.450Z,1018.40
2017-12-06T11:22:40.446Z,1018.40
2017-12-06T11:23:40.440Z,1018.42
2017-12-06T11:24:40.438Z,1018.41
2017-12-06T11:25:40.429Z,1018.38
2017-12-06T11:26:40.436Z,1018.40
2017-12-06T11:27:40.421Z,1018.38
2017-12-06T11:28:40.414Z,1018.36
2017-12-06T11:29:40.408Z,1018.41
2017-12-06T11:30:40.404Z,1018.39
2017-12-06T11:31:40.399Z,1018.38
2017-12-06T11:32:40.401Z,1018.45
2017-12-06T11:33:40.388Z,1018.44
2017-12-06T11:34:40.383Z,1018.39
2017-12-06T11:35:40.378Z,1018.36
2017-12-06T11:36:40.372Z,1018.45
2017-12-06T11:37:40.368Z,1018.35
2017-12-06T11:38:40.363Z,1018.34
2017-12-06T11:39:40.358Z,1018.29
2017-12-06T11:40:40.352Z,1018.32
2017-12-06T11:41:40.346Z,1018.27
2017-12-06T11:42:40.341Z,1018.30
2017-12-06T11:43:40.338Z,1018.28
2017-12-06T11:44:40.331Z,1018.26
2017-12-06T11:45:40.326Z,1018.27
2017-12-06T11:46:40.322Z,1018.26
2017-12-06T11:47:40.316Z,1018.32
2017-12-06T11:48:40.311Z,1018.29
2017-12-06T11:49:40.310Z,1018.28
2017-12-06T11:50:40.302Z,1018.29
2017-12-06T11:51:40.296Z,1018.29
2017-12-06T11:52:40.292Z,1018.30
2017-12-06T11:53:40.287Z,1018.33
2017-12-06T11:54:40.282Z,1018.26
2017-12-06T11:55:40.277Z,1018.31
2017-12-06T11:56:40.271Z,1018.32
2017-12-06T11:57:40.266Z,1018.27
2017-12-06T11:58:40.261Z,1018.29
2017-12-06T11:59:40.257Z,1018.26
2017-12-06T12:00:40.252Z,1018.25
2017-12-06T12:01:40.245Z,1018.21
2017-12-06T12:02:40.243Z,1018.21
2017-12-06T12:03:40.237Z,1018.19
2017-12-06T12:04:40.231Z,1018.18
2017-12-06T12:05:40.226Z,1018.17